createdAt,value
2022-10-04T00:02:34.690Z,8.32
2022-10-04T00:12:41.120Z,16.10
2022-10-04T00:23:19.990Z,13.25
2022-10-04T00:33:37.766Z,12.23
2022-10-04T00:43:43.752Z,7.85
2022-10-04T00:53:57.324Z,12.73
2022-10-04T01:04:03.319Z,8.32
2022-10-04T01:14:14.548Z,7.95
2022-10-04T01:24:22.122Z,13.50
2022-10-04T01:34:26.843Z,9.23
2022-10-04T01:44:37.691Z,9.55
2022-10-04T01:54:44.462Z,8.43
2022-10-04T02:04:53.681Z,9.25
2022-10-04T02:14:58.140Z,15.07
2022-10-04T02:25:02.419Z,18.33
2022-10-04T02:35:07.030Z,12.10
2022-10-04T02:45:20.306Z,11.65
2022-10-04T02:55:26.608Z,11.18
2022-10-04T03:05:30.690Z,13.32
2022-10-04T03:15:33.613Z,14.30
2022-10-04T03:25:46.612Z,9.68
2022-10-04T03:35:52.501Z,21.65
2022-10-04T03:45:58.065Z,16.25
2022-10-04T03:56:04.526Z,16.35
2022-10-04T04:06:16.169Z,13.07
2022-10-04T04:16:21.349Z,17.70
2022-10-04T04:26:31.341Z,13.85
2022-10-04T04:36:41.630Z,12.93
2022-10-04T04:46:46.121Z,13.35
2022-10-04T04:56:50.209Z,12.20
2022-10-04T05:07:18.164Z,17.50
2022-10-04T05:17:24.252Z,16.17
2022-10-04T05:27:31.644Z,15.10
2022-10-04T05:37:53.310Z,18.80
2022-10-04T05:47:59.011Z,19.98
2022-10-04T05:58:31.809Z,13.30
2022-10-04T06:08:50.550Z,17.38
2022-10-04T06:19:13.192Z,15.32
2022-10-04T06:29:21.924Z,16.60
2022-10-04T06:40:02.235Z,15.05
2022-10-04T06:50:21.029Z,19.52
2022-10-04T07:00:26.086Z,15.45
2022-10-04T07:10:35.603Z,18.98
2022-10-04T07:20:39.090Z,15.77
2022-10-04T07:30:49.619Z,23.13
2022-10-04T07:41:07.409Z,16.80
2022-10-04T07:51:21.008Z,13.70
2022-10-04T08:01:31.363Z,15.32
2022-10-04T08:11:43.579Z,11.77
2022-10-04T08:21:55.783Z,14.27
2022-10-04T08:32:06.326Z,10.88
2022-10-04T08:42:41.756Z,14.25
2022-10-04T08:53:16.452Z,13.02
2022-10-04T09:04:06.625Z,11.30
2022-10-04T09:14:36.415Z,12.32
2022-10-04T09:35:25.142Z,12.30
2022-10-04T09:45:38.059Z,7.05
2022-10-04T09:56:04.241Z,10.07
2022-10-04T10:06:41.904Z,8.25
2022-10-04T10:17:00.890Z,9.10
2022-10-04T10:27:49.015Z,11.30
2022-10-04T10:38:06.681Z,9.23
2022-10-04T10:48:18.855Z,9.82
2022-10-04T10:59:01.681Z,6.93
2022-10-04T11:09:32.802Z,7.32
2022-10-04T11:20:11.140Z,5.93
2022-10-04T11:30:24.690Z,6.13
2022-10-04T11:40:40.205Z,8.02
2022-10-04T11:51:03.144Z,8.77
2022-10-04T12:01:40.739Z,7.35
2022-10-04T12:12:31.395Z,5.32
2022-10-04T12:23:03.363Z,4.72
2022-10-04T12:33:15.556Z,6.13
2022-10-04T12:43:28.083Z,8.35
2022-10-04T12:53:46.046Z,9.07
2022-10-04T13:04:06.578Z,7.10
2022-10-04T13:14:45.054Z,6.80
2022-10-04T13:25:02.046Z,5.68
2022-10-04T13:35:14.617Z,4.80
2022-10-04T13:45:39.192Z,5.50
2022-10-04T13:56:06.842Z,10.68
2022-10-04T14:06:34.747Z,6.00
2022-10-04T14:17:11.688Z,6.45
2022-10-04T14:27:42.905Z,7.38
2022-10-04T14:38:36.079Z,6.18
2022-10-04T14:49:01.679Z,6.30
2022-10-04T14:59:22.518Z,6.97
2022-10-04T15:09:51.485Z,7.28
2022-10-04T15:20:05.038Z,5.67
2022-10-04T15:30:20.010Z,6.05
2022-10-04T15:40:31.737Z,6.50
2022-10-04T15:50:42.382Z,9.32
2022-10-04T16:00:57.341Z,6.93
2022-10-04T16:11:12.798Z,12.35
2022-10-04T16:21:29.548Z,9.48
2022-10-04T16:31:53.274Z,9.95
2022-10-04T16:42:00.286Z,8.32
2022-10-04T16:52:27.660Z,6.32
2022-10-04T17:03:01.102Z,7.65
2022-10-04T17:13:21.073Z,15.10
2022-10-04T17:23:53.398Z,16.30
2022-10-04T17:34:08.002Z,15.60
2022-10-04T17:44:34.214Z,13.63
2022-10-04T17:55:03.729Z,14.45
2022-10-04T18:05:24.126Z,10.97
2022-10-04T18:15:31.206Z,9.63
2022-10-04T18:25:34.331Z,10.18
2022-10-04T18:35:52.208Z,12.05
2022-10-04T18:46:04.427Z,11.95
2022-10-04T18:56:09.954Z,16.67
2022-10-04T19:06:20.507Z,27.20
2022-10-04T19:16:38.342Z,32.70
2022-10-04T19:26:44.542Z,11.20
2022-10-04T19:36:55.980Z,12.00
2022-10-04T19:47:04.493Z,8.60
2022-10-04T19:57:14.874Z,8.10
2022-10-04T20:07:23.594Z,12.15
2022-10-04T20:17:34.748Z,8.73
2022-10-04T20:28:03.587Z,9.43
2022-10-04T20:38:32.111Z,9.40
2022-10-04T20:48:35.523Z,7.57
2022-10-04T20:58:40.579Z,9.75
2022-10-04T21:08:43.321Z,14.32
2022-10-04T21:18:47.356Z,7.57
2022-10-04T21:28:54.015Z,12.50
2022-10-04T21:38:58.005Z,8.13
2022-10-04T21:49:00.622Z,7.93
2022-10-04T21:59:04.862Z,11.40
2022-10-04T22:09:07.529Z,7.25
2022-10-04T22:19:11.703Z,8.68
2022-10-04T22:29:15.596Z,6.72
2022-10-04T22:39:21.226Z,11.43
2022-10-04T22:49:26.777Z,10.63
2022-10-04T22:59:36.002Z,8.80
2022-10-04T23:09:38.657Z,8.50
2022-10-04T23:19:42.786Z,11.10
2022-10-04T23:29:46.580Z,8.02
2022-10-04T23:39:51.008Z,9.40
2022-10-04T23:49:54.740Z,6.03
